sensor_id;sensor_type;location;lat;lon;timestamp;P1;durP1;ratioP1;P2;durP2;ratioP2
59388;SDS011;51830;45.202;19.720;2023-03-01T00:02:25;19.05;;;7.25;;
59388;SDS011;51830;45.202;19.720;2023-03-01T00:04:51;18.75;;;8.05;;
59388;SDS011;51830;45.202;19.720;2023-03-01T00:07:17;27.50;;;9.50;;
59388;SDS011;51830;45.202;19.720;2023-03-01T00:09:43;31.48;;;11.32;;
59388;SDS011;51830;45.202;19.720;2023-03-01T00:12:10;26.70;;;11.27;;
59388;SDS011;51830;45.202;19.720;2023-03-01T00:14:37;36.30;;;12.07;;
59388;SDS011;51830;45.202;19.720;2023-03-01T00:17:03;30.98;;;10.82;;
59388;SDS011;51830;45.202;19.720;2023-03-01T00:19:29;24.90;;;9.38;;
59388;SDS011;51830;45.202;19.720;2023-03-01T00:21:57;18.10;;;5.88;;
59388;SDS011;51830;45.202;19.720;2023-03-01T00:24:23;19.80;;;6.82;;
59388;SDS011;51830;45.202;19.720;2023-03-01T00:26:52;16.65;;;6.47;;
59388;SDS011;51830;45.202;19.720;2023-03-01T00:29:20;22.25;;;6.85;;
59388;SDS011;51830;45.202;19.720;2023-03-01T00:31:46;18.63;;;5.85;;
59388;SDS011;51830;45.202;19.720;2023-03-01T00:34:12;17.95;;;6.55;;
59388;SDS011;51830;45.202;19.720;2023-03-01T00:36:38;16.63;;;5.38;;
59388;SDS011;51830;45.202;19.720;2023-03-01T00:39:05;11.55;;;4.13;;
59388;SDS011;51830;45.202;19.720;2023-03-01T00:41:33;15.48;;;4.95;;
59388;SDS011;51830;45.202;19.720;2023-03-01T00:43:59;19.85;;;5.70;;
59388;SDS011;51830;45.202;19.720;2023-03-01T00:46:26;15.73;;;5.63;;
59388;SDS011;51830;45.202;19.720;2023-03-01T00:48:55;16.40;;;4.35;;
59388;SDS011;51830;45.202;19.720;2023-03-01T00:51:22;13.40;;;5.35;;
59388;SDS011;51830;45.202;19.720;2023-03-01T00:53:50;12.93;;;4.35;;
59388;SDS011;51830;45.202;19.720;2023-03-01T00:56:16;14.02;;;4.40;;
59388;SDS011;51830;45.202;19.720;2023-03-01T00:58:43;18.27;;;5.00;;
59388;SDS011;51830;45.202;19.720;2023-03-01T01:01:13;12.65;;;4.20;;
59388;SDS011;51830;45.202;19.720;2023-03-01T01:03:52;15.43;;;4.88;;
59388;SDS011;51830;45.202;19.720;2023-03-01T01:06:25;17.60;;;5.97;;
59388;SDS011;51830;45.202;19.720;2023-03-01T01:08:51;14.88;;;4.55;;
59388;SDS011;51830;45.202;19.720;2023-03-01T01:11:18;14.80;;;5.13;;
59388;SDS011;51830;45.202;19.720;2023-03-01T01:13:45;18.27;;;6.38;;
59388;SDS011;51830;45.202;19.720;2023-03-01T01:16:12;13.88;;;4.80;;
59388;SDS011;51830;45.202;19.720;2023-03-01T01:18:39;13.75;;;5.10;;
59388;SDS011;51830;45.202;19.720;2023-03-01T01:21:09;19.17;;;5.65;;
59388;SDS011;51830;45.202;19.720;2023-03-01T01:23:36;20.00;;;6.72;;
59388;SDS011;51830;45.202;19.720;2023-03-01T01:26:03;15.93;;;5.35;;
59388;SDS011;51830;45.202;19.720;2023-03-01T01:28:29;14.35;;;5.60;;
59388;SDS011;51830;45.202;19.720;2023-03-01T01:30:56;21.13;;;6.32;;
59388;SDS011;51830;45.202;19.720;2023-03-01T01:33:22;19.70;;;6.85;;
59388;SDS011;51830;45.202;19.720;2023-03-01T01:35:48;17.65;;;5.05;;
59388;SDS011;51830;45.202;19.720;2023-03-01T01:38:14;11.55;;;4.15;;
59388;SDS011;51830;45.202;19.720;2023-03-01T01:40:44;19.95;;;5.85;;
59388;SDS011;51830;45.202;19.720;2023-03-01T01:43:17;19.65;;;5.43;;
59388;SDS011;51830;45.202;19.720;2023-03-01T01:45:44;27.08;;;6.07;;
59388;SDS011;51830;45.202;19.720;2023-03-01T01:48:10;16.20;;;5.00;;
59388;SDS011;51830;45.202;19.720;2023-03-01T01:50:39;28.67;;;6.93;;
59388;SDS011;51830;45.202;19.720;2023-03-01T01:53:09;20.10;;;7.70;;
59388;SDS011;51830;45.202;19.720;2023-03-01T01:55:36;26.17;;;8.40;;
59388;SDS011;51830;45.202;19.720;2023-03-01T01:58:04;67.18;;;20.83;;
59388;SDS011;51830;45.202;19.720;2023-03-01T02:00:31;65.65;;;28.92;;
59388;SDS011;51830;45.202;19.720;2023-03-01T02:02:59;36.78;;;13.77;;
59388;SDS011;51830;45.202;19.720;2023-03-01T02:07:55;35.50;;;17.52;;
59388;SDS011;51830;45.202;19.720;2023-03-01T02:10:22;20.60;;;7.93;;
59388;SDS011;51830;45.202;19.720;2023-03-01T02:12:49;21.67;;;7.60;;
59388;SDS011;51830;45.202;19.720;2023-03-01T02:15:16;14.75;;;5.60;;
59388;SDS011;51830;45.202;19.720;2023-03-01T02:17:42;22.40;;;6.18;;
59388;SDS011;51830;45.202;19.720;2023-03-01T02:20:15;18.95;;;5.88;;
59388;SDS011;51830;45.202;19.720;2023-03-01T02:22:43;13.95;;;4.80;;
59388;SDS011;51830;45.202;19.720;2023-03-01T02:30:13;17.08;;;5.93;;
59388;SDS011;51830;45.202;19.720;2023-03-01T02:32:40;18.13;;;4.85;;
59388;SDS011;51830;45.202;19.720;2023-03-01T02:35:10;20.95;;;7.30;;
59388;SDS011;51830;45.202;19.720;2023-03-01T02:37:37;19.58;;;6.70;;
59388;SDS011;51830;45.202;19.720;2023-03-01T02:40:06;15.32;;;5.13;;
59388;SDS011;51830;45.202;19.720;2023-03-01T02:42:36;21.08;;;7.13;;
59388;SDS011;51830;45.202;19.720;2023-03-01T02:45:06;16.50;;;5.55;;
59388;SDS011;51830;45.202;19.720;2023-03-01T02:47:33;14.20;;;4.80;;
59388;SDS011;51830;45.202;19.720;2023-03-01T02:49:59;21.70;;;6.55;;
59388;SDS011;51830;45.202;19.720;2023-03-01T02:55:11;18.92;;;5.57;;
59388;SDS011;51830;45.202;19.720;2023-03-01T02:57:39;14.77;;;5.35;;
59388;SDS011;51830;45.202;19.720;2023-03-01T03:00:07;16.23;;;5.50;;
59388;SDS011;51830;45.202;19.720;2023-03-01T03:02:34;17.65;;;5.75;;
59388;SDS011;51830;45.202;19.720;2023-03-01T03:05:34;20.58;;;7.53;;
59388;SDS011;51830;45.202;19.720;2023-03-01T03:07:53;15.60;;;6.10;;
59388;SDS011;51830;45.202;19.720;2023-03-01T03:10:24;18.17;;;5.90;;
59388;SDS011;51830;45.202;19.720;2023-03-01T03:12:52;14.48;;;6.10;;
59388;SDS011;51830;45.202;19.720;2023-03-01T03:15:18;19.73;;;6.53;;
59388;SDS011;51830;45.202;19.720;2023-03-01T03:17:45;14.38;;;4.68;;
59388;SDS011;51830;45.202;19.720;2023-03-01T03:20:12;16.05;;;5.78;;
59388;SDS011;51830;45.202;19.720;2023-03-01T03:22:43;18.97;;;6.03;;
59388;SDS011;51830;45.202;19.720;2023-03-01T03:25:10;21.85;;;7.10;;
59388;SDS011;51830;45.202;19.720;2023-03-01T03:27:37;16.17;;;4.88;;
59388;SDS011;51830;45.202;19.720;2023-03-01T03:30:04;18.45;;;5.75;;
59388;SDS011;51830;45.202;19.720;2023-03-01T03:32:36;16.25;;;5.97;;
59388;SDS011;51830;45.202;19.720;2023-03-01T03:35:06;15.80;;;5.75;;
59388;SDS011;51830;45.202;19.720;2023-03-01T03:37:39;16.75;;;4.75;;
59388;SDS011;51830;45.202;19.720;2023-03-01T03:40:25;12.73;;;4.32;;
59388;SDS011;51830;45.202;19.720;2023-03-01T03:42:51;18.08;;;6.43;;
59388;SDS011;51830;45.202;19.720;2023-03-01T03:45:17;15.70;;;5.60;;
59388;SDS011;51830;45.202;19.720;2023-03-01T03:47:43;12.90;;;4.32;;
59388;SDS011;51830;45.202;19.720;2023-03-01T03:50:11;15.70;;;5.70;;
59388;SDS011;51830;45.202;19.720;2023-03-01T03:52:38;18.38;;;4.75;;
59388;SDS011;51830;45.202;19.720;2023-03-01T03:55:05;23.27;;;5.13;;
59388;SDS011;51830;45.202;19.720;2023-03-01T03:57:35;24.60;;;5.93;;
59388;SDS011;51830;45.202;19.720;2023-03-01T04:00:01;18.40;;;5.53;;
59388;SDS011;51830;45.202;19.720;2023-03-01T04:02:30;21.23;;;6.95;;
59388;SDS011;51830;45.202;19.720;2023-03-01T04:04:56;23.88;;;7.72;;
59388;SDS011;51830;45.202;19.720;2023-03-01T04:07:22;25.65;;;7.07;;
59388;SDS011;51830;45.202;19.720;2023-03-01T04:09:49;16.35;;;6.47;;
59388;SDS011;51830;45.202;19.720;2023-03-01T04:12:15;20.75;;;8.20;;
59388;SDS011;51830;45.202;19.720;2023-03-01T04:14:45;19.67;;;7.63;;
59388;SDS011;51830;45.202;19.720;2023-03-01T04:17:12;27.05;;;9.32;;
59388;SDS011;51830;45.202;19.720;2023-03-01T04:19:38;21.35;;;7.47;;
59388;SDS011;51830;45.202;19.720;2023-03-01T04:22:04;22.10;;;8.40;;
59388;SDS011;51830;45.202;19.720;2023-03-01T04:24:37;19.80;;;8.10;;
59388;SDS011;51830;45.202;19.720;2023-03-01T04:27:03;18.58;;;6.95;;
59388;SDS011;51830;45.202;19.720;2023-03-01T04:29:30;20.35;;;7.40;;
59388;SDS011;51830;45.202;19.720;2023-03-01T04:31:56;24.75;;;9.13;;
59388;SDS011;51830;45.202;19.720;2023-03-01T04:34:24;21.55;;;7.95;;
59388;SDS011;51830;45.202;19.720;2023-03-01T04:36:52;23.98;;;8.73;;
59388;SDS011;51830;45.202;19.720;2023-03-01T04:39:18;23.88;;;8.35;;
59388;SDS011;51830;45.202;19.720;2023-03-01T04:41:44;28.98;;;9.27;;
59388;SDS011;51830;45.202;19.720;2023-03-01T04:44:11;26.88;;;10.07;;
59388;SDS011;51830;45.202;19.720;2023-03-01T04:46:37;31.42;;;10.95;;
59388;SDS011;51830;45.202;19.720;2023-03-01T04:49:04;25.27;;;9.85;;
59388;SDS011;51830;45.202;19.720;2023-03-01T04:51:30;31.98;;;11.13;;
59388;SDS011;51830;45.202;19.720;2023-03-01T04:53:59;21.27;;;8.18;;
59388;SDS011;51830;45.202;19.720;2023-03-01T04:56:26;27.33;;;10.88;;
59388;SDS011;51830;45.202;19.720;2023-03-01T04:58:55;35.60;;;14.25;;
59388;SDS011;51830;45.202;19.720;2023-03-01T05:01:22;32.67;;;11.40;;
59388;SDS011;51830;45.202;19.720;2023-03-01T05:03:51;29.15;;;10.90;;
59388;SDS011;51830;45.202;19.720;2023-03-01T05:06:18;25.77;;;11.38;;
59388;SDS011;51830;45.202;19.720;2023-03-01T05:08:45;37.45;;;11.80;;
59388;SDS011;51830;45.202;19.720;2023-03-01T05:11:11;31.67;;;11.48;;
59388;SDS011;51830;45.202;19.720;2023-03-01T05:13:38;27.70;;;11.65;;
59388;SDS011;51830;45.202;19.720;2023-03-01T05:16:05;26.13;;;10.50;;
59388;SDS011;51830;45.202;19.720;2023-03-01T05:18:32;27.23;;;10.57;;
59388;SDS011;51830;45.202;19.720;2023-03-01T05:21:05;25.95;;;10.07;;
59388;SDS011;51830;45.202;19.720;2023-03-01T05:23:32;31.75;;;11.20;;
59388;SDS011;51830;45.202;19.720;2023-03-01T05:26:02;28.35;;;10.23;;
59388;SDS011;51830;45.202;19.720;2023-03-01T05:28:29;25.63;;;11.10;;
59388;SDS011;51830;45.202;19.720;2023-03-01T05:30:55;32.38;;;12.95;;
59388;SDS011;51830;45.202;19.720;2023-03-01T05:33:21;21.67;;;9.75;;
59388;SDS011;51830;45.202;19.720;2023-03-01T05:35:48;25.90;;;10.43;;
59388;SDS011;51830;45.202;19.720;2023-03-01T05:38:15;26.83;;;10.27;;
59388;SDS011;51830;45.202;19.720;2023-03-01T05:40:42;25.50;;;11.32;;
59388;SDS011;51830;45.202;19.720;2023-03-01T05:43:09;26.58;;;11.30;;
59388;SDS011;51830;45.202;19.720;2023-03-01T05:45:36;31.30;;;12.65;;
59388;SDS011;51830;45.202;19.720;2023-03-01T05:48:03;27.05;;;11.00;;
59388;SDS011;51830;45.202;19.720;2023-03-01T05:50:31;30.90;;;13.20;;
59388;SDS011;51830;45.202;19.720;2023-03-01T05:55:25;30.15;;;12.05;;
59388;SDS011;51830;45.202;19.720;2023-03-01T05:57:51;35.80;;;13.13;;
59388;SDS011;51830;45.202;19.720;2023-03-01T06:00:18;30.27;;;12.98;;
59388;SDS011;51830;45.202;19.720;2023-03-01T06:02:45;28.50;;;11.88;;
59388;SDS011;51830;45.202;19.720;2023-03-01T06:05:12;34.25;;;12.13;;
59388;SDS011;51830;45.202;19.720;2023-03-01T06:07:38;32.97;;;12.70;;
59388;SDS011;51830;45.202;19.720;2023-03-01T06:10:05;24.77;;;10.25;;
59388;SDS011;51830;45.202;19.720;2023-03-01T06:12:34;29.52;;;11.20;;
59388;SDS011;51830;45.202;19.720;2023-03-01T06:15:01;25.48;;;8.85;;
59388;SDS011;51830;45.202;19.720;2023-03-01T06:17:29;34.00;;;12.63;;
59388;SDS011;51830;45.202;19.720;2023-03-01T06:19:55;29.73;;;12.30;;
59388;SDS011;51830;45.202;19.720;2023-03-01T06:22:22;31.83;;;13.85;;
59388;SDS011;51830;45.202;19.720;2023-03-01T06:24:48;32.45;;;15.38;;
59388;SDS011;51830;45.202;19.720;2023-03-01T06:27:15;33.20;;;12.70;;
59388;SDS011;51830;45.202;19.720;2023-03-01T06:29:41;28.65;;;11.70;;
59388;SDS011;51830;45.202;19.720;2023-03-01T06:32:07;37.65;;;13.80;;
59388;SDS011;51830;45.202;19.720;2023-03-01T06:34:33;33.13;;;12.77;;
59388;SDS011;51830;45.202;19.720;2023-03-01T06:37:00;23.90;;;11.07;;
59388;SDS011;51830;45.202;19.720;2023-03-01T06:39:30;24.30;;;11.10;;
59388;SDS011;51830;45.202;19.720;2023-03-01T06:41:57;32.53;;;13.60;;
59388;SDS011;51830;45.202;19.720;2023-03-01T06:44:23;31.00;;;12.07;;
59388;SDS011;51830;45.202;19.720;2023-03-01T06:46:49;25.30;;;10.45;;
59388;SDS011;51830;45.202;19.720;2023-03-01T06:49:15;24.88;;;9.80;;
59388;SDS011;51830;45.202;19.720;2023-03-01T06:51:43;28.95;;;12.32;;
59388;SDS011;51830;45.202;19.720;2023-03-01T06:54:09;29.35;;;10.60;;
59388;SDS011;51830;45.202;19.720;2023-03-01T06:56:37;21.95;;;8.90;;
59388;SDS011;51830;45.202;19.720;2023-03-01T06:59:04;27.58;;;11.05;;
59388;SDS011;51830;45.202;19.720;2023-03-01T07:01:30;26.38;;;12.20;;
59388;SDS011;51830;45.202;19.720;2023-03-01T07:03:56;31.52;;;13.90;;
59388;SDS011;51830;45.202;19.720;2023-03-01T07:06:23;33.58;;;14.30;;
59388;SDS011;51830;45.202;19.720;2023-03-01T07:08:49;32.80;;;11.25;;
59388;SDS011;51830;45.202;19.720;2023-03-01T07:11:15;28.05;;;11.70;;
59388;SDS011;51830;45.202;19.720;2023-03-01T07:13:42;26.30;;;10.93;;
59388;SDS011;51830;45.202;19.720;2023-03-01T07:16:08;31.95;;;11.20;;
59388;SDS011;51830;45.202;19.720;2023-03-01T07:18:34;25.08;;;9.75;;
59388;SDS011;51830;45.202;19.720;2023-03-01T07:21:06;24.70;;;12.15;;
59388;SDS011;51830;45.202;19.720;2023-03-01T07:23:33;32.92;;;14.27;;
59388;SDS011;51830;45.202;19.720;2023-03-01T07:25:59;34.28;;;15.63;;
59388;SDS011;51830;45.202;19.720;2023-03-01T07:28:26;34.33;;;14.95;;
59388;SDS011;51830;45.202;19.720;2023-03-01T07:30:52;29.45;;;14.52;;
59388;SDS011;51830;45.202;19.720;2023-03-01T07:33:19;45.50;;;18.85;;
59388;SDS011;51830;45.202;19.720;2023-03-01T07:35:45;51.70;;;21.70;;
59388;SDS011;51830;45.202;19.720;2023-03-01T07:38:11;41.22;;;18.35;;
59388;SDS011;51830;45.202;19.720;2023-03-01T07:40:37;81.30;;;33.63;;
59388;SDS011;51830;45.202;19.720;2023-03-01T07:43:04;37.20;;;17.02;;
59388;SDS011;51830;45.202;19.720;2023-03-01T07:45:30;38.65;;;16.73;;
59388;SDS011;51830;45.202;19.720;2023-03-01T07:47:56;33.70;;;14.02;;
59388;SDS011;51830;45.202;19.720;2023-03-01T07:50:23;39.65;;;16.25;;
59388;SDS011;51830;45.202;19.720;2023-03-01T07:52:49;30.67;;;13.30;;
59388;SDS011;51830;45.202;19.720;2023-03-01T07:55:16;29.38;;;14.07;;
59388;SDS011;51830;45.202;19.720;2023-03-01T07:57:42;46.10;;;19.17;;
59388;SDS011;51830;45.202;19.720;2023-03-01T08:00:10;32.85;;;14.70;;
59388;SDS011;51830;45.202;19.720;2023-03-01T08:02:36;40.88;;;14.48;;
59388;SDS011;51830;45.202;19.720;2023-03-01T08:05:03;42.97;;;19.60;;
59388;SDS011;51830;45.202;19.720;2023-03-01T08:07:29;34.28;;;14.68;;
59388;SDS011;51830;45.202;19.720;2023-03-01T08:09:56;29.60;;;12.57;;
59388;SDS011;51830;45.202;19.720;2023-03-01T08:12:22;37.15;;;15.18;;
59388;SDS011;51830;45.202;19.720;2023-03-01T08:14:48;32.67;;;16.02;;
59388;SDS011;51830;45.202;19.720;2023-03-01T08:17:15;33.55;;;14.10;;
59388;SDS011;51830;45.202;19.720;2023-03-01T08:19:42;40.70;;;14.23;;
59388;SDS011;51830;45.202;19.720;2023-03-01T08:22:08;34.65;;;15.43;;
59388;SDS011;51830;45.202;19.720;2023-03-01T08:24:34;30.42;;;12.30;;
59388;SDS011;51830;45.202;19.720;2023-03-01T08:27:01;32.97;;;12.73;;
59388;SDS011;51830;45.202;19.720;2023-03-01T08:29:28;33.08;;;11.73;;
59388;SDS011;51830;45.202;19.720;2023-03-01T08:31:55;37.28;;;14.60;;
59388;SDS011;51830;45.202;19.720;2023-03-01T08:34:22;32.45;;;15.60;;
59388;SDS011;51830;45.202;19.720;2023-03-01T08:36:48;30.55;;;13.15;;
59388;SDS011;51830;45.202;19.720;2023-03-01T08:39:17;29.73;;;12.55;;
59388;SDS011;51830;45.202;19.720;2023-03-01T08:41:44;37.00;;;15.30;;
59388;SDS011;51830;45.202;19.720;2023-03-01T08:44:12;29.83;;;12.82;;
59388;SDS011;51830;45.202;19.720;2023-03-01T08:46:39;37.47;;;14.98;;
59388;SDS011;51830;45.202;19.720;2023-03-01T08:49:11;34.40;;;12.98;;
59388;SDS011;51830;45.202;19.720;2023-03-01T08:51:37;29.20;;;12.88;;
59388;SDS011;51830;45.202;19.720;2023-03-01T08:54:04;36.80;;;13.15;;
59388;SDS011;51830;45.202;19.720;2023-03-01T08:56:30;30.75;;;13.20;;
59388;SDS011;51830;45.202;19.720;2023-03-01T08:58:56;35.78;;;14.57;;
59388;SDS011;51830;45.202;19.720;2023-03-01T09:01:22;31.17;;;12.13;;
59388;SDS011;51830;45.202;19.720;2023-03-01T09:03:49;28.23;;;12.00;;
59388;SDS011;51830;45.202;19.720;2023-03-01T09:06:15;33.33;;;14.30;;
59388;SDS011;51830;45.202;19.720;2023-03-01T09:08:42;33.92;;;14.02;;
59388;SDS011;51830;45.202;19.720;2023-03-01T09:11:09;32.58;;;13.38;;
59388;SDS011;51830;45.202;19.720;2023-03-01T09:13:36;29.52;;;12.13;;
59388;SDS011;51830;45.202;19.720;2023-03-01T09:16:03;31.25;;;13.00;;
59388;SDS011;51830;45.202;19.720;2023-03-01T09:18:29;28.83;;;11.75;;
59388;SDS011;51830;45.202;19.720;2023-03-01T09:21:02;28.42;;;11.88;;
59388;SDS011;51830;45.202;19.720;2023-03-01T09:23:40;29.73;;;12.45;;
59388;SDS011;51830;45.202;19.720;2023-03-01T09:26:07;28.30;;;11.45;;
59388;SDS011;51830;45.202;19.720;2023-03-01T09:28:34;29.30;;;11.80;;
59388;SDS011;51830;45.202;19.720;2023-03-01T09:31:01;27.33;;;11.68;;
59388;SDS011;51830;45.202;19.720;2023-03-01T09:33:28;28.17;;;11.95;;
59388;SDS011;51830;45.202;19.720;2023-03-01T09:35:57;31.17;;;12.75;;
59388;SDS011;51830;45.202;19.720;2023-03-01T09:38:24;25.13;;;11.35;;
59388;SDS011;51830;45.202;19.720;2023-03-01T09:40:50;30.23;;;13.05;;
59388;SDS011;51830;45.202;19.720;2023-03-01T09:45:46;27.58;;;11.48;;
59388;SDS011;51830;45.202;19.720;2023-03-01T09:48:16;22.52;;;9.35;;
59388;SDS011;51830;45.202;19.720;2023-03-01T09:50:42;27.52;;;10.50;;
59388;SDS011;51830;45.202;19.720;2023-03-01T09:53:10;28.17;;;11.07;;
59388;SDS011;51830;45.202;19.720;2023-03-01T09:55:40;30.75;;;11.40;;
59388;SDS011;51830;45.202;19.720;2023-03-01T10:00:47;30.58;;;13.15;;
59388;SDS011;51830;45.202;19.720;2023-03-01T10:03:22;26.98;;;11.07;;
59388;SDS011;51830;45.202;19.720;2023-03-01T10:05:56;30.73;;;13.23;;
59388;SDS011;51830;45.202;19.720;2023-03-01T10:08:43;31.55;;;12.60;;
59388;SDS011;51830;45.202;19.720;2023-03-01T10:11:22;30.42;;;11.50;;
59388;SDS011;51830;45.202;19.720;2023-03-01T10:16:40;28.55;;;11.13;;
59388;SDS011;51830;45.202;19.720;2023-03-01T10:19:10;29.30;;;13.52;;
59388;SDS011;51830;45.202;19.720;2023-03-01T10:21:40;29.13;;;12.77;;
59388;SDS011;51830;45.202;19.720;2023-03-01T10:24:10;27.63;;;11.23;;
59388;SDS011;51830;45.202;19.720;2023-03-01T10:29:08;28.60;;;10.20;;
59388;SDS011;51830;45.202;19.720;2023-03-01T10:31:48;26.65;;;10.75;;
59388;SDS011;51830;45.202;19.720;2023-03-01T10:39:36;26.65;;;10.30;;
59388;SDS011;51830;45.202;19.720;2023-03-01T10:42:04;29.17;;;11.93;;
59388;SDS011;51830;45.202;19.720;2023-03-01T10:44:38;28.35;;;12.13;;
59388;SDS011;51830;45.202;19.720;2023-03-01T10:47:05;36.65;;;14.23;;
59388;SDS011;51830;45.202;19.720;2023-03-01T10:49:31;28.30;;;13.35;;
59388;SDS011;51830;45.202;19.720;2023-03-01T10:51:57;31.77;;;14.02;;
59388;SDS011;51830;45.202;19.720;2023-03-01T10:54:36;28.00;;;12.82;;
59388;SDS011;51830;45.202;19.720;2023-03-01T10:57:05;28.25;;;13.65;;
59388;SDS011;51830;45.202;19.720;2023-03-01T10:59:35;35.38;;;12.93;;
59388;SDS011;51830;45.202;19.720;2023-03-01T11:04:37;34.75;;;14.23;;
59388;SDS011;51830;45.202;19.720;2023-03-01T11:07:03;27.95;;;14.10;;
59388;SDS011;51830;45.202;19.720;2023-03-01T11:09:33;32.60;;;13.45;;
59388;SDS011;51830;45.202;19.720;2023-03-01T11:12:08;28.55;;;12.57;;
59388;SDS011;51830;45.202;19.720;2023-03-01T11:14:45;29.63;;;12.25;;
59388;SDS011;51830;45.202;19.720;2023-03-01T11:19:38;29.00;;;12.52;;
59388;SDS011;51830;45.202;19.720;2023-03-01T11:27:00;29.60;;;12.23;;
59388;SDS011;51830;45.202;19.720;2023-03-01T11:32:01;33.03;;;12.18;;
59388;SDS011;51830;45.202;19.720;2023-03-01T11:34:32;28.67;;;12.82;;
59388;SDS011;51830;45.202;19.720;2023-03-01T11:37:03;31.77;;;12.93;;
59388;SDS011;51830;45.202;19.720;2023-03-01T11:39:47;32.30;;;13.38;;
59388;SDS011;51830;45.202;19.720;2023-03-01T11:42:21;30.23;;;13.98;;
59388;SDS011;51830;45.202;19.720;2023-03-01T11:44:52;31.90;;;14.70;;
59388;SDS011;51830;45.202;19.720;2023-03-01T11:52:35;30.55;;;13.38;;
59388;SDS011;51830;45.202;19.720;2023-03-01T11:55:12;31.52;;;13.60;;
59388;SDS011;51830;45.202;19.720;2023-03-01T12:10:52;31.48;;;12.23;;
59388;SDS011;51830;45.202;19.720;2023-03-01T12:16:15;28.55;;;12.55;;
59388;SDS011;51830;45.202;19.720;2023-03-01T12:24:10;27.60;;;11.35;;
59388;SDS011;51830;45.202;19.720;2023-03-01T12:34:58;26.70;;;11.38;;
59388;SDS011;51830;45.202;19.720;2023-03-01T12:45:44;21.52;;;8.02;;
59388;SDS011;51830;45.202;19.720;2023-03-01T12:50:52;25.65;;;9.88;;
59388;SDS011;51830;45.202;19.720;2023-03-01T12:55:45;26.27;;;10.95;;
59388;SDS011;51830;45.202;19.720;2023-03-01T13:00:52;25.08;;;11.20;;
59388;SDS011;51830;45.202;19.720;2023-03-01T13:03:22;22.50;;;9.43;;
59388;SDS011;51830;45.202;19.720;2023-03-01T13:08:22;25.80;;;9.68;;
59388;SDS011;51830;45.202;19.720;2023-03-01T13:10:56;23.83;;;9.95;;
59388;SDS011;51830;45.202;19.720;2023-03-01T13:13:25;23.38;;;9.02;;
59388;SDS011;51830;45.202;19.720;2023-03-01T13:15:52;45.72;;;11.27;;
59388;SDS011;51830;45.202;19.720;2023-03-01T13:20:49;22.23;;;8.18;;
59388;SDS011;51830;45.202;19.720;2023-03-01T13:33:48;28.30;;;8.75;;
59388;SDS011;51830;45.202;19.720;2023-03-01T13:46:51;21.55;;;9.07;;
59388;SDS011;51830;45.202;19.720;2023-03-01T13:49:19;25.33;;;8.23;;
59388;SDS011;51830;45.202;19.720;2023-03-01T13:51:46;22.73;;;8.68;;
59388;SDS011;51830;45.202;19.720;2023-03-01T13:54:12;26.75;;;8.90;;
59388;SDS011;51830;45.202;19.720;2023-03-01T13:56:40;26.67;;;8.05;;
59388;SDS011;51830;45.202;19.720;2023-03-01T13:59:12;20.20;;;8.55;;
59388;SDS011;51830;45.202;19.720;2023-03-01T14:01:39;21.92;;;8.73;;
59388;SDS011;51830;45.202;19.720;2023-03-01T14:09:37;20.15;;;8.00;;
59388;SDS011;51830;45.202;19.720;2023-03-01T14:12:14;21.70;;;8.65;;
59388;SDS011;51830;45.202;19.720;2023-03-01T14:14:48;20.10;;;7.80;;
59388;SDS011;51830;45.202;19.720;2023-03-01T14:19:55;24.87;;;10.73;;
59388;SDS011;51830;45.202;19.720;2023-03-01T14:25:34;26.35;;;9.48;;
59388;SDS011;51830;45.202;19.720;2023-03-01T14:27:35;19.65;;;7.25;;
59388;SDS011;51830;45.202;19.720;2023-03-01T14:30:26;27.08;;;7.40;;
59388;SDS011;51830;45.202;19.720;2023-03-01T14:32:58;24.90;;;9.45;;
59388;SDS011;51830;45.202;19.720;2023-03-01T14:35:26;22.15;;;8.43;;
59388;SDS011;51830;45.202;19.720;2023-03-01T14:37:52;27.75;;;8.25;;
59388;SDS011;51830;45.202;19.720;2023-03-01T14:40:23;20.08;;;7.13;;
59388;SDS011;51830;45.202;19.720;2023-03-01T14:42:49;21.98;;;8.25;;
59388;SDS011;51830;45.202;19.720;2023-03-01T14:45:15;24.45;;;9.82;;
59388;SDS011;51830;45.202;19.720;2023-03-01T14:47:43;19.98;;;8.05;;
59388;SDS011;51830;45.202;19.720;2023-03-01T14:50:26;26.27;;;8.02;;
59388;SDS011;51830;45.202;19.720;2023-03-01T14:52:57;20.23;;;8.48;;
59388;SDS011;51830;45.202;19.720;2023-03-01T14:55:31;24.25;;;8.70;;
59388;SDS011;51830;45.202;19.720;2023-03-01T14:58:02;22.50;;;8.43;;
59388;SDS011;51830;45.202;19.720;2023-03-01T15:00:28;25.52;;;7.75;;
59388;SDS011;51830;45.202;19.720;2023-03-01T15:02:56;21.58;;;6.82;;
59388;SDS011;51830;45.202;19.720;2023-03-01T15:05:32;18.95;;;7.25;;
59388;SDS011;51830;45.202;19.720;2023-03-01T15:07:59;19.10;;;6.60;;
59388;SDS011;51830;45.202;19.720;2023-03-01T15:10:31;23.13;;;7.78;;
59388;SDS011;51830;45.202;19.720;2023-03-01T15:13:11;18.70;;;5.78;;
59388;SDS011;51830;45.202;19.720;2023-03-01T15:15:38;21.25;;;7.00;;
59388;SDS011;51830;45.202;19.720;2023-03-01T15:18:11;22.60;;;7.38;;
59388;SDS011;51830;45.202;19.720;2023-03-01T15:20:39;19.73;;;8.05;;
59388;SDS011;51830;45.202;19.720;2023-03-01T15:23:05;20.60;;;7.57;;
59388;SDS011;51830;45.202;19.720;2023-03-01T15:25:32;18.77;;;6.55;;
59388;SDS011;51830;45.202;19.720;2023-03-01T15:27:59;24.20;;;9.10;;
59388;SDS011;51830;45.202;19.720;2023-03-01T15:30:27;25.17;;;9.30;;
59388;SDS011;51830;45.202;19.720;2023-03-01T15:35:45;29.42;;;13.75;;
59388;SDS011;51830;45.202;19.720;2023-03-01T15:38:32;24.75;;;10.02;;
59388;SDS011;51830;45.202;19.720;2023-03-01T15:41:04;26.23;;;9.55;;
59388;SDS011;51830;45.202;19.720;2023-03-01T15:43:44;23.90;;;10.30;;
59388;SDS011;51830;45.202;19.720;2023-03-01T15:46:17;26.67;;;8.48;;
59388;SDS011;51830;45.202;19.720;2023-03-01T15:48:45;20.33;;;8.60;;
59388;SDS011;51830;45.202;19.720;2023-03-01T15:51:11;25.50;;;9.88;;
59388;SDS011;51830;45.202;19.720;2023-03-01T15:53:39;28.30;;;10.40;;
59388;SDS011;51830;45.202;19.720;2023-03-01T15:56:05;23.80;;;9.95;;
59388;SDS011;51830;45.202;19.720;2023-03-01T15:58:34;36.00;;;10.80;;
59388;SDS011;51830;45.202;19.720;2023-03-01T16:01:00;26.55;;;10.68;;
59388;SDS011;51830;45.202;19.720;2023-03-01T16:03:27;24.67;;;10.73;;
59388;SDS011;51830;45.202;19.720;2023-03-01T16:05:53;29.30;;;13.38;;
59388;SDS011;51830;45.202;19.720;2023-03-01T16:08:19;33.28;;;13.77;;
59388;SDS011;51830;45.202;19.720;2023-03-01T16:10:45;34.33;;;15.15;;
59388;SDS011;51830;45.202;19.720;2023-03-01T16:13:16;32.53;;;13.82;;
59388;SDS011;51830;45.202;19.720;2023-03-01T16:15:42;39.53;;;15.82;;
59388;SDS011;51830;45.202;19.720;2023-03-01T16:18:09;37.83;;;16.17;;
59388;SDS011;51830;45.202;19.720;2023-03-01T16:20:36;38.25;;;18.42;;
59388;SDS011;51830;45.202;19.720;2023-03-01T16:23:04;38.45;;;16.25;;
59388;SDS011;51830;45.202;19.720;2023-03-01T16:25:30;38.53;;;16.08;;
59388;SDS011;51830;45.202;19.720;2023-03-01T16:27:57;35.67;;;16.60;;
59388;SDS011;51830;45.202;19.720;2023-03-01T16:30:26;34.22;;;15.30;;
59388;SDS011;51830;45.202;19.720;2023-03-01T16:32:52;34.30;;;16.58;;